West Milwaukee, Wisconsin
Current Conditions -  °F | °C
As of 7:52 PM on Saturday 22 Nov 2014 (Local Time) from KMKE Reporting Station
Haze Haze  
Wind Chill: 42°   Ceiling: Unl
Heat Index: 45°   Visibility: 4mi
Dew Point: 41°   Wind: 6mph
Humidity: 86%   Direction: 190°S
Pressure: 29.81"   Gusts: NA
Location:  42.9995°N, 87.9467°W
Report Text: KMKE 230152Z 19005KT 4SM BR FEW022 SCT043 07/05 A2981 RMK AO2 SLP101 T00720050
Loading
Personal Weather Stations






























Interactive Weather Map New forecast layout! Learn more

10-Day Weather Forecast

Advertisements
Track Severe Weather on mobile